createdAt,value
2022-08-04T00:01:53.969Z,96.43
2022-08-04T00:06:14.422Z,95.44
2022-08-04T00:10:18.764Z,95.09
2022-08-04T00:14:21.964Z,95.29
2022-08-04T00:18:30.149Z,94.89
2022-08-04T00:22:34.402Z,95.39
2022-08-04T00:26:36.744Z,95.78
2022-08-04T00:30:42.417Z,95.88
2022-08-04T00:34:44.528Z,95.88
2022-08-04T00:38:46.139Z,96.22
2022-08-04T00:43:19.558Z,96.32
2022-08-04T00:47:36.163Z,96.22
2022-08-04T00:51:48.150Z,96.42
2022-08-04T00:56:36.505Z,96.32
2022-08-04T01:00:52.270Z,96.52
2022-08-04T01:05:20.110Z,96.96
2022-08-04T01:09:44.745Z,96.77
2022-08-04T01:13:49.409Z,96.37
2022-08-04T01:18:06.177Z,96.67
2022-08-04T01:22:29.450Z,97.01
2022-08-04T01:27:09.260Z,97.41
2022-08-04T01:31:25.972Z,97.65
2022-08-04T01:35:47.407Z,97.65
2022-08-04T01:39:55.846Z,97.75
2022-08-04T01:43:59.375Z,97.55
2022-08-04T01:48:02.878Z,97.70
2022-08-04T01:52:07.468Z,97.70
2022-08-04T01:56:11.368Z,98.10
2022-08-04T02:00:15.820Z,98.19
2022-08-04T02:04:23.538Z,98.19
2022-08-04T02:08:41.162Z,98.49
2022-08-04T02:12:48.776Z,99.18
2022-08-04T02:16:52.930Z,98.99
2022-08-04T02:21:02.110Z,98.49
2022-08-04T02:25:07.835Z,98.39
2022-08-04T02:29:44.768Z,98.34
2022-08-04T02:33:54.250Z,98.34
2022-08-04T02:38:04.728Z,98.24
2022-08-04T02:42:06.580Z,98.14
2022-08-04T02:46:18.069Z,97.60
2022-08-04T02:50:28.420Z,97.09
2022-08-04T02:54:35.302Z,97.00
2022-08-04T02:58:37.325Z,96.70
2022-08-04T03:03:00.106Z,97.00
2022-08-04T03:07:32.170Z,97.00
2022-08-04T03:11:52.461Z,96.94
2022-08-04T03:16:21.458Z,96.94
2022-08-04T03:21:11.909Z,96.94
2022-08-04T03:25:57.277Z,97.05
2022-08-04T03:30:08.108Z,97.64
2022-08-04T03:34:22.134Z,97.88
2022-08-04T03:39:08.819Z,97.99
2022-08-04T03:43:57.256Z,98.28
2022-08-04T03:48:43.065Z,99.18
2022-08-04T03:53:22.788Z,99.52
2022-08-04T03:57:42.129Z,99.32
2022-08-04T04:02:11.326Z,99.99
2022-08-04T04:06:31.685Z,99.99
2022-08-04T04:10:39.290Z,99.99
2022-08-04T04:15:05.967Z,99.99
2022-08-04T04:19:19.770Z,99.99
2022-08-04T04:23:37.668Z,99.99
2022-08-04T04:27:51.196Z,99.99
2022-08-04T04:32:12.460Z,99.99
2022-08-04T04:36:29.995Z,99.99
2022-08-04T04:40:43.037Z,99.99
2022-08-04T04:44:59.919Z,99.99
2022-08-04T04:49:05.675Z,99.99
2022-08-04T04:53:33.573Z,99.99
2022-08-04T04:57:54.770Z,99.99
2022-08-04T05:02:36.682Z,99.99
2022-08-04T05:07:02.453Z,99.87
2022-08-04T05:11:31.785Z,99.99
2022-08-04T05:15:37.465Z,99.82
2022-08-04T05:20:11.423Z,99.52
2022-08-04T05:24:22.315Z,98.43
2022-08-04T05:28:38.091Z,97.04
2022-08-04T05:33:00.831Z,96.39
2022-08-04T05:37:11.950Z,96.59
2022-08-04T05:41:14.260Z,96.99
2022-08-04T05:45:16.803Z,97.29
2022-08-04T05:49:21.926Z,97.14
2022-08-04T05:53:25.495Z,97.24
2022-08-04T05:57:28.262Z,95.95
2022-08-04T06:01:31.754Z,94.66
2022-08-04T06:05:34.229Z,93.82
2022-08-04T06:09:35.797Z,93.52
2022-08-04T06:13:50.181Z,93.33
2022-08-04T06:18:33.651Z,93.33
2022-08-04T06:22:29.052Z,93.23
2022-08-04T06:26:34.043Z,92.99
2022-08-04T06:30:37.150Z,92.99
2022-08-04T06:34:39.522Z,92.65
2022-08-04T06:38:41.739Z,92.35
2022-08-04T06:42:44.062Z,91.16
2022-08-04T06:46:45.781Z,90.91
2022-08-04T06:51:24.504Z,90.12
2022-08-04T06:55:11.470Z,89.33
2022-08-04T06:59:15.964Z,88.84
2022-08-04T07:03:19.540Z,89.19
2022-08-04T07:07:36.862Z,88.40
2022-08-04T07:11:44.590Z,88.65
2022-08-04T07:15:47.864Z,88.26
2022-08-04T07:19:49.818Z,88.06
2022-08-04T07:23:51.509Z,88.51
2022-08-04T07:27:53.117Z,88.41
2022-08-04T07:31:57.099Z,88.37
2022-08-04T07:36:10.518Z,88.37
2022-08-04T07:40:13.272Z,87.77
2022-08-04T07:44:16.188Z,87.73
2022-08-04T07:48:18.909Z,87.54
2022-08-04T07:52:21.540Z,87.14
2022-08-04T07:56:23.207Z,87.19
2022-08-04T08:00:24.865Z,86.90
2022-08-04T08:04:27.112Z,86.86
2022-08-04T08:08:29.396Z,86.76
2022-08-04T08:12:38.550Z,86.17
2022-08-04T08:16:52.499Z,85.93
2022-08-04T08:20:55.363Z,86.13
2022-08-04T08:24:57.108Z,86.03
2022-08-04T08:28:58.776Z,85.39
2022-08-04T08:33:03.947Z,85.39
2022-08-04T08:37:14.931Z,85.64
2022-08-04T08:41:53.953Z,85.35
2022-08-04T08:46:10.826Z,85.45
2022-08-04T08:50:40.125Z,85.21
2022-08-04T08:55:01.901Z,85.17
2022-08-04T08:59:50.541Z,84.88
2022-08-04T09:04:03.861Z,85.03
2022-08-04T09:08:30.187Z,85.23
2022-08-04T09:12:41.491Z,85.62
2022-08-04T09:16:49.300Z,85.68
2022-08-04T09:21:04.360Z,85.74
2022-08-04T09:25:17.288Z,85.74
2022-08-04T09:29:34.156Z,85.40
2022-08-04T09:33:56.567Z,84.91
2022-08-04T09:38:09.534Z,85.26
2022-08-04T09:42:29.407Z,85.06
2022-08-04T09:46:42.701Z,84.63
2022-08-04T09:50:50.439Z,84.33
2022-08-04T09:55:16.964Z,84.20
2022-08-04T09:59:25.680Z,83.90
2022-08-04T10:03:33.405Z,83.66
2022-08-04T10:07:42.315Z,82.84
2022-08-04T10:11:57.846Z,83.03
2022-08-04T10:16:11.705Z,82.45
2022-08-04T10:20:45.677Z,81.33
2022-08-04T10:26:02.844Z,80.80
2022-08-04T10:29:49.104Z,80.07
2022-08-04T10:34:12.556Z,78.61
2022-08-04T10:38:26.783Z,77.59
2022-08-04T10:42:30.873Z,78.38
2022-08-04T10:46:39.480Z,77.94
2022-08-04T10:50:57.114Z,77.16
2022-08-04T10:55:21.488Z,76.77
2022-08-04T10:59:33.306Z,76.15
2022-08-04T11:03:51.800Z,76.15
2022-08-04T11:08:01.249Z,74.54
2022-08-04T11:12:23.572Z,74.64
2022-08-04T11:16:30.187Z,74.71
2022-08-04T11:21:01.862Z,73.44
2022-08-04T11:25:14.709Z,71.15
2022-08-04T11:29:42.232Z,72.39
2022-08-04T11:34:03.217Z,71.61
2022-08-04T11:38:11.195Z,70.79
2022-08-04T11:42:18.522Z,71.37
2022-08-04T11:46:28.084Z,69.98
2022-08-04T11:50:41.581Z,69.10
2022-08-04T11:54:44.314Z,67.02
2022-08-04T11:58:56.409Z,65.75
2022-08-04T12:03:00.925Z,66.21
2022-08-04T12:07:33.118Z,66.31
2022-08-04T12:11:54.504Z,65.11
2022-08-04T12:16:10.689Z,63.26
2022-08-04T12:20:38.057Z,63.32
2022-08-04T12:24:45.846Z,61.77
2022-08-04T12:33:12.634Z,62.51
2022-08-04T12:37:49.536Z,60.44
2022-08-04T12:42:11.315Z,61.97
2022-08-04T12:46:25.069Z,62.07
2022-08-04T12:50:27.937Z,61.94
2022-08-04T12:54:32.127Z,61.45
2022-08-04T12:58:42.269Z,61.04
2022-08-04T13:02:47.387Z,61.52
2022-08-04T13:06:57.470Z,61.29
2022-08-04T13:11:00.374Z,60.30
2022-08-04T13:15:18.254Z,60.58
2022-08-04T13:19:20.590Z,60.68
2022-08-04T13:23:26.052Z,60.36
2022-08-04T13:27:29.411Z,59.97
2022-08-04T13:31:52.913Z,59.46
2022-08-04T13:35:57.026Z,59.05
2022-08-04T13:39:59.997Z,59.43
2022-08-04T13:44:17.685Z,58.65
2022-08-04T13:48:32.580Z,59.01
2022-08-04T13:52:34.673Z,57.95
2022-08-04T13:56:52.719Z,57.63
2022-08-04T14:01:00.324Z,57.34
2022-08-04T14:05:29.467Z,57.03
2022-08-04T14:09:35.812Z,57.21
2022-08-04T14:13:41.101Z,55.35
2022-08-04T14:17:43.650Z,55.65
2022-08-04T14:21:45.259Z,56.58
2022-08-04T14:25:46.836Z,56.10
2022-08-04T14:29:48.722Z,56.00
2022-08-04T14:34:00.586Z,53.78
2022-08-04T14:38:10.848Z,53.59
2022-08-04T14:42:12.769Z,54.65
2022-08-04T14:46:15.009Z,54.14
2022-08-04T14:50:18.147Z,54.05
2022-08-04T14:54:30.821Z,53.95
2022-08-04T14:58:39.387Z,55.01
2022-08-04T15:02:43.086Z,55.18
2022-08-04T15:06:47.369Z,55.08
2022-08-04T15:10:49.009Z,54.66
2022-08-04T15:14:50.800Z,54.66
2022-08-04T15:18:54.797Z,53.61
2022-08-04T15:22:58.539Z,54.76
2022-08-04T15:27:04.120Z,53.80
2022-08-04T15:31:10.573Z,54.18
2022-08-04T15:35:39.069Z,53.70
2022-08-04T15:39:48.780Z,52.93
2022-08-04T15:43:56.364Z,54.09
2022-08-04T15:48:04.285Z,54.18
2022-08-04T15:52:11.880Z,54.57
2022-08-04T15:56:23.406Z,54.57
2022-08-04T16:00:28.503Z,54.57
2022-08-04T16:04:30.103Z,54.66
2022-08-04T16:08:46.191Z,54.09
2022-08-04T16:13:11.206Z,53.89
2022-08-04T16:17:17.462Z,54.66
2022-08-04T16:21:25.666Z,54.38
2022-08-04T16:25:46.605Z,53.89
2022-08-04T16:29:48.498Z,53.61
2022-08-04T16:33:50.090Z,54.18
2022-08-04T16:38:14.665Z,53.80
2022-08-04T16:42:30.666Z,54.50
2022-08-04T16:47:21.607Z,54.50
2022-08-04T16:51:09.616Z,54.11
2022-08-04T16:55:14.213Z,52.95
2022-08-04T16:59:16.170Z,54.21
2022-08-04T17:03:17.901Z,54.91
2022-08-04T17:07:19.547Z,55.88
2022-08-04T17:11:32.230Z,55.81
2022-08-04T17:15:33.846Z,55.33
2022-08-04T17:19:35.425Z,55.83
2022-08-04T17:24:12.977Z,56.22
2022-08-04T17:28:20.102Z,56.83
2022-08-04T17:32:28.512Z,56.67
2022-08-04T17:36:31.934Z,57.66
2022-08-04T17:40:50.470Z,57.01
2022-08-04T17:49:33.593Z,57.94
2022-08-04T17:58:26.841Z,59.26
2022-08-04T18:02:33.562Z,59.45
2022-08-04T18:06:36.306Z,60.55
2022-08-04T18:10:52.575Z,61.55
2022-08-04T18:15:02.169Z,62.32
2022-08-04T18:19:08.664Z,63.52
2022-08-04T18:23:11.519Z,63.52
2022-08-04T18:27:24.197Z,63.94
2022-08-04T18:31:27.714Z,64.46
2022-08-04T18:36:33.707Z,65.53
2022-08-04T18:40:10.601Z,66.34
2022-08-04T18:44:14.246Z,67.50
2022-08-04T18:48:18.540Z,68.32
2022-08-04T18:52:24.172Z,69.00
2022-08-04T18:56:32.454Z,70.40
2022-08-04T19:00:34.838Z,71.66
2022-08-04T19:04:37.196Z,72.19
2022-08-04T19:08:42.474Z,72.77
2022-08-04T19:12:46.659Z,73.35
2022-08-04T19:16:50.620Z,73.88
2022-08-04T19:20:52.487Z,73.88
2022-08-04T19:24:54.061Z,74.07
2022-08-04T19:28:57.396Z,74.37
2022-08-04T19:32:58.991Z,74.11
2022-08-04T19:37:00.567Z,74.30
2022-08-04T19:41:02.770Z,69.53
2022-08-04T19:45:16.195Z,70.73
2022-08-04T19:50:03.656Z,71.80
2022-08-04T19:53:43.059Z,72.00
2022-08-04T19:57:46.573Z,72.09
2022-08-04T20:01:51.888Z,71.45
2022-08-04T20:05:57.414Z,71.64
2022-08-04T20:10:04.567Z,71.64
2022-08-04T20:14:06.468Z,71.45
2022-08-04T20:18:36.782Z,71.45
2022-08-04T20:22:52.931Z,69.69
2022-08-04T20:26:53.722Z,68.42
2022-08-04T20:30:55.306Z,69.89
2022-08-04T20:34:57.386Z,69.59
2022-08-04T20:38:59.007Z,69.04
2022-08-04T20:43:00.770Z,69.92
2022-08-04T20:47:02.353Z,73.54
2022-08-04T20:51:04.807Z,75.33
2022-08-04T20:55:07.532Z,76.11
2022-08-04T20:59:09.117Z,74.68
2022-08-04T21:03:11.931Z,74.38
2022-08-04T21:07:13.745Z,74.77
2022-08-04T21:11:18.535Z,74.38
2022-08-04T21:15:25.069Z,73.70
2022-08-04T21:19:28.327Z,74.38
2022-08-04T21:23:29.922Z,74.09
2022-08-04T21:27:35.883Z,73.93
2022-08-04T21:31:50.239Z,73.93
2022-08-04T21:35:55.077Z,74.42
2022-08-04T21:39:59.292Z,74.62
2022-08-04T21:44:02.976Z,74.81
2022-08-04T21:48:06.027Z,73.64
2022-08-04T21:52:07.649Z,72.76
2022-08-04T21:56:12.646Z,72.56
2022-08-04T22:00:19.412Z,72.99
2022-08-04T22:04:21.735Z,72.60
2022-08-04T22:08:23.619Z,72.11
2022-08-04T22:12:32.324Z,71.91
2022-08-04T22:16:36.458Z,72.31
2022-08-04T22:20:38.172Z,72.44
2022-08-04T22:24:42.361Z,72.53
2022-08-04T22:28:44.847Z,72.14
2022-08-04T22:32:47.463Z,72.34
2022-08-04T22:36:49.031Z,72.57
2022-08-04T22:40:56.404Z,72.96
2022-08-04T22:44:58.937Z,72.90
2022-08-04T22:49:00.538Z,73.10
2022-08-04T22:53:02.071Z,73.52
2022-08-04T22:57:03.843Z,73.96
2022-08-04T23:01:05.480Z,74.44
2022-08-04T23:05:07.485Z,75.16
2022-08-04T23:09:11.792Z,75.66
2022-08-04T23:13:17.905Z,76.18
2022-08-04T23:17:21.037Z,76.97
2022-08-04T23:21:23.979Z,78.44
2022-08-04T23:25:32.845Z,78.97
2022-08-04T23:29:52.564Z,79.80
2022-08-04T23:33:56.504Z,80.09
2022-08-04T23:38:00.061Z,80.43
2022-08-04T23:42:20.934Z,80.82
2022-08-04T23:46:23.194Z,80.72
2022-08-04T23:50:24.767Z,80.76
2022-08-04T23:54:26.368Z,80.66
2022-08-04T23:58:27.913Z,80.86
